createdAt,value
2023-03-16T00:00:14.200Z,100238.94
2023-03-16T00:02:42.658Z,100239.38
2023-03-16T00:05:12.940Z,100245.72
2023-03-16T00:07:42.155Z,100249.59
2023-03-16T00:10:14.510Z,100253.31
2023-03-16T00:12:45.234Z,100255.28
2023-03-16T00:15:14.201Z,100257.34
2023-03-16T00:17:48.472Z,100264.53
2023-03-16T00:20:16.984Z,100269.34
2023-03-16T00:22:45.978Z,100271.44
2023-03-16T00:25:25.440Z,100268.81
2023-03-16T00:27:53.629Z,100270.75
2023-03-16T00:30:23.084Z,100272.78
2023-03-16T00:32:53.920Z,100262.97
2023-03-16T00:35:22.301Z,100275.16
2023-03-16T00:37:50.475Z,100275.41
2023-03-16T00:40:18.939Z,100283.56
2023-03-16T00:42:48.502Z,100287.66
2023-03-16T00:45:17.504Z,100289.34
2023-03-16T00:47:46.188Z,100306.22
2023-03-16T00:50:14.810Z,100310.50
2023-03-16T00:52:43.617Z,100308.00
2023-03-16T00:55:13.162Z,100311.47
2023-03-16T00:57:42.887Z,100311.47
2023-03-16T01:00:17.346Z,100316.84
2023-03-16T01:02:46.624Z,100318.91
2023-03-16T01:05:16.068Z,100318.34
2023-03-16T01:07:45.278Z,100317.78
2023-03-16T01:10:14.179Z,100325.91
2023-03-16T01:12:45.610Z,100336.81
2023-03-16T01:15:23.419Z,100339.69
2023-03-16T01:17:51.992Z,100343.44
2023-03-16T01:20:20.640Z,100352.41
2023-03-16T01:22:49.024Z,100350.97
2023-03-16T01:25:18.461Z,100352.91
2023-03-16T01:27:58.735Z,100369.63
2023-03-16T01:30:28.825Z,100375.94
2023-03-16T01:32:57.324Z,100359.66
2023-03-16T01:35:25.573Z,100365.97
2023-03-16T01:37:54.843Z,100365.16
2023-03-16T01:40:23.210Z,100369.69
2023-03-16T01:43:02.084Z,100362.78
2023-03-16T01:46:18.331Z,100367.31
2023-03-16T01:48:53.389Z,100366.59
2023-03-16T01:51:25.459Z,100375.72
2023-03-16T01:53:58.054Z,100380.13
2023-03-16T01:56:29.588Z,100388.00
2023-03-16T01:58:59.993Z,100389.94
2023-03-16T02:01:31.356Z,100393.50
2023-03-16T02:04:09.430Z,100402.09
2023-03-16T02:06:40.795Z,100399.47
2023-03-16T02:09:10.687Z,100406.25
2023-03-16T02:11:40.080Z,100406.13
2023-03-16T02:14:12.711Z,100416.34
2023-03-16T02:16:43.293Z,100415.28
2023-03-16T02:19:18.184Z,100415.28
2023-03-16T02:21:55.986Z,100420.53
2023-03-16T02:24:24.327Z,100422.19
2023-03-16T02:26:56.512Z,100426.63
2023-03-16T02:29:47.188Z,100425.06
2023-03-16T02:32:16.656Z,100429.75
2023-03-16T02:35:10.690Z,100425.59
2023-03-16T02:37:40.399Z,100432.75
2023-03-16T02:40:22.932Z,100433.84
2023-03-16T02:42:57.811Z,100442.53
2023-03-16T02:45:33.668Z,100448.88
2023-03-16T02:48:05.310Z,100443.06
2023-03-16T02:50:33.757Z,100456.44
2023-03-16T02:53:01.994Z,100448.69
2023-03-16T02:55:30.115Z,100461.09
2023-03-16T02:57:58.298Z,100456.91
2023-03-16T03:00:28.189Z,100463.13
2023-03-16T03:02:59.368Z,100469.31
2023-03-16T03:05:29.669Z,100474.00
2023-03-16T03:07:57.940Z,100470.06
2023-03-16T03:10:26.782Z,100478.28
2023-03-16T03:12:57.659Z,100475.00
2023-03-16T03:15:35.465Z,100486.44
2023-03-16T03:18:04.189Z,100489.19
2023-03-16T03:20:32.539Z,100488.47
2023-03-16T03:23:00.786Z,100497.16
2023-03-16T03:25:29.081Z,100509.44
2023-03-16T03:27:57.310Z,100504.31
2023-03-16T03:30:28.116Z,100510.75
2023-03-16T03:32:56.609Z,100510.88
2023-03-16T03:35:24.880Z,100516.38
2023-03-16T03:37:53.004Z,100516.50
2023-03-16T03:40:22.399Z,100517.56
2023-03-16T03:42:51.563Z,100519.34
2023-03-16T03:45:19.904Z,100525.66
2023-03-16T03:47:49.542Z,100527.84
2023-03-16T03:50:18.044Z,100528.06
2023-03-16T03:52:46.271Z,100526.75
2023-03-16T03:55:14.502Z,100538.31
2023-03-16T03:57:42.718Z,100525.09
2023-03-16T04:00:12.280Z,100538.06
2023-03-16T04:02:41.910Z,100540.81
2023-03-16T04:05:12.113Z,100542.38
2023-03-16T04:07:40.397Z,100542.97
2023-03-16T04:10:10.145Z,100541.19
2023-03-16T04:12:38.695Z,100548.69
2023-03-16T04:15:07.672Z,100546.88
2023-03-16T04:17:35.874Z,100543.31
2023-03-16T04:20:07.927Z,100550.34
2023-03-16T04:22:37.532Z,100546.06
2023-03-16T04:25:06.427Z,100559.75
2023-03-16T04:27:36.692Z,100552.13
2023-03-16T04:30:08.318Z,100554.88
2023-03-16T04:32:36.479Z,100559.88
2023-03-16T04:35:05.652Z,100563.22
2023-03-16T04:37:42.524Z,100559.66
2023-03-16T04:40:16.856Z,100567.41
2023-03-16T04:42:50.967Z,100559.66
2023-03-16T04:45:19.488Z,100572.66
2023-03-16T04:47:47.665Z,100557.16
2023-03-16T04:50:15.984Z,100564.91
2023-03-16T04:52:57.269Z,100568.47
2023-03-16T04:55:25.548Z,100572.88
2023-03-16T04:57:53.763Z,100567.88
2023-03-16T05:00:23.605Z,100579.31
2023-03-16T05:02:53.248Z,100588.13
2023-03-16T05:05:22.495Z,100584.81
2023-03-16T05:07:58.424Z,100594.56
2023-03-16T05:10:27.712Z,100590.63
2023-03-16T05:12:56.065Z,100600.38
2023-03-16T05:15:24.437Z,100606.81
2023-03-16T05:17:52.983Z,100605.38
2023-03-16T05:20:22.448Z,100619.44
2023-03-16T05:22:50.895Z,100625.63
2023-03-16T05:25:21.781Z,100623.72
2023-03-16T05:27:53.979Z,100630.63
2023-03-16T05:30:22.430Z,100633.03
2023-03-16T05:32:51.486Z,100632.09
2023-03-16T05:35:23.662Z,100644.09
2023-03-16T05:37:52.801Z,100644.09
2023-03-16T05:40:23.392Z,100641.38
2023-03-16T05:42:56.456Z,100651.41
2023-03-16T05:45:25.264Z,100650.34
2023-03-16T05:47:53.668Z,100666.66
2023-03-16T05:50:22.158Z,100662.03
2023-03-16T05:52:51.051Z,100665.25
2023-03-16T05:55:20.103Z,100677.53
2023-03-16T05:57:51.252Z,100682.19
2023-03-16T06:00:20.913Z,100680.88
2023-03-16T06:02:52.397Z,100683.03
2023-03-16T06:05:23.133Z,100688.66
2023-03-16T06:07:51.646Z,100693.41
2023-03-16T06:10:20.782Z,100690.34
2023-03-16T06:12:51.626Z,100701.06
2023-03-16T06:15:20.192Z,100710.16
2023-03-16T06:17:48.900Z,100713.22
2023-03-16T06:20:17.624Z,100712.78
2023-03-16T06:22:46.321Z,100719.34
2023-03-16T06:25:15.615Z,100731.03
2023-03-16T06:27:44.577Z,100728.78
2023-03-16T06:30:15.768Z,100733.41
2023-03-16T06:32:45.461Z,100735.41
2023-03-16T06:35:14.392Z,100734.13
2023-03-16T06:37:43.472Z,100736.84
2023-03-16T06:40:13.511Z,100744.81
2023-03-16T06:42:52.613Z,100752.94
2023-03-16T06:45:22.442Z,100751.47
2023-03-16T06:47:51.212Z,100756.03
2023-03-16T06:50:19.514Z,100763.28
2023-03-16T06:52:48.269Z,100766.94
2023-03-16T06:55:16.462Z,100765.63
2023-03-16T06:57:44.669Z,100765.13
2023-03-16T07:00:15.918Z,100773.47
2023-03-16T07:02:48.459Z,100771.06
2023-03-16T07:05:16.679Z,100771.50
2023-03-16T07:07:45.870Z,100781.28
2023-03-16T07:10:17.474Z,100786.16
2023-03-16T07:12:46.108Z,100793.56
2023-03-16T07:15:15.178Z,100800.81
2023-03-16T07:17:43.859Z,100804.72
2023-03-16T07:20:14.057Z,100812.94
2023-03-16T07:22:42.890Z,100817.59
2023-03-16T07:25:12.543Z,100810.84
2023-03-16T07:27:41.459Z,100811.03
2023-03-16T07:30:12.267Z,100814.69
2023-03-16T07:32:40.410Z,100821.81
2023-03-16T07:35:09.598Z,100829.06
2023-03-16T07:37:39.388Z,100822.31
2023-03-16T07:40:09.423Z,100827.06
2023-03-16T07:42:38.542Z,100837.31
2023-03-16T07:45:08.121Z,100830.00
2023-03-16T07:47:36.529Z,100827.56
2023-03-16T07:50:06.224Z,100838.00
2023-03-16T07:52:37.108Z,100841.06
2023-03-16T07:55:11.925Z,100845.69
2023-03-16T07:57:42.297Z,100842.09
2023-03-16T08:00:14.277Z,100846.09
2023-03-16T08:02:43.336Z,100850.84
2023-03-16T08:05:12.924Z,100845.75
2023-03-16T08:07:41.352Z,100846.75
2023-03-16T08:10:13.024Z,100846.66
2023-03-16T08:12:43.430Z,100846.09
2023-03-16T08:15:13.054Z,100849.31
2023-03-16T08:17:42.740Z,100854.88
2023-03-16T08:20:14.954Z,100862.53
2023-03-16T08:22:46.767Z,100870.91
2023-03-16T08:25:20.009Z,100864.06
2023-03-16T08:27:49.578Z,100880.06
2023-03-16T08:30:22.817Z,100870.88
2023-03-16T08:32:51.087Z,100880.91
2023-03-16T08:35:19.410Z,100878.41
2023-03-16T08:37:47.673Z,100880.59
2023-03-16T08:40:17.942Z,100883.41
2023-03-16T08:42:46.494Z,100884.63
2023-03-16T08:45:15.064Z,100890.63
2023-03-16T08:47:43.759Z,100894.53
2023-03-16T08:50:13.673Z,100896.19
2023-03-16T08:52:42.962Z,100895.91
2023-03-16T08:55:13.382Z,100903.25
2023-03-16T08:57:45.154Z,100901.03
2023-03-16T09:00:15.039Z,100906.44
2023-03-16T09:02:44.332Z,100902.53
2023-03-16T09:05:14.859Z,100904.31
2023-03-16T09:07:43.904Z,100900.00
2023-03-16T09:10:16.571Z,100913.94
2023-03-16T09:12:47.772Z,100905.16
2023-03-16T09:15:16.224Z,100915.28
2023-03-16T09:17:52.198Z,100918.75
2023-03-16T09:20:26.414Z,100918.72
2023-03-16T09:23:03.758Z,100917.03
2023-03-16T09:25:32.564Z,100920.63
2023-03-16T09:28:02.314Z,100920.28
2023-03-16T09:30:31.040Z,100924.63
2023-03-16T09:32:59.622Z,100929.75
2023-03-16T09:35:28.240Z,100935.91
2023-03-16T09:38:06.327Z,100940.06
2023-03-16T09:40:38.347Z,100935.69
2023-03-16T09:43:33.832Z,100942.31
2023-03-16T09:46:10.688Z,100941.59
2023-03-16T09:48:48.101Z,100944.91
2023-03-16T09:51:23.473Z,100951.72
2023-03-16T09:53:58.214Z,100950.47
2023-03-16T09:56:32.394Z,100952.28
2023-03-16T09:59:03.275Z,100962.63
2023-03-16T10:01:44.972Z,100961.50
2023-03-16T10:04:34.772Z,100971.66
2023-03-16T10:07:21.421Z,100960.91
2023-03-16T10:09:56.721Z,100962.31
2023-03-16T10:12:33.173Z,100966.09
2023-03-16T10:15:07.778Z,100968.59
2023-03-16T10:17:42.114Z,100976.19
2023-03-16T10:20:17.499Z,100977.59
2023-03-16T10:22:47.447Z,100983.16
2023-03-16T10:25:23.449Z,100986.50
2023-03-16T10:27:53.074Z,100993.72
2023-03-16T10:30:25.991Z,100993.00
2023-03-16T10:32:54.373Z,100993.06
2023-03-16T10:35:36.165Z,100990.69
2023-03-16T10:38:04.383Z,101002.13
2023-03-16T10:40:33.305Z,100994.16
2023-03-16T10:43:08.713Z,100993.75
2023-03-16T10:45:38.342Z,100999.69
2023-03-16T10:48:14.408Z,101001.47
2023-03-16T10:50:43.332Z,100994.88
2023-03-16T10:53:19.663Z,101000.03
2023-03-16T10:55:50.452Z,101005.34
2023-03-16T10:58:27.533Z,101009.06
2023-03-16T11:00:58.892Z,101009.28
2023-03-16T11:03:31.773Z,101015.81
2023-03-16T11:06:02.398Z,101018.47
2023-03-16T11:08:35.293Z,101022.31
2023-03-16T11:11:11.913Z,101022.44
2023-03-16T11:13:46.389Z,101016.66
2023-03-16T11:16:38.634Z,101025.84
2023-03-16T11:19:19.092Z,101021.38
2023-03-16T11:21:55.359Z,101019.69
2023-03-16T11:24:31.088Z,101017.03
2023-03-16T11:27:02.015Z,101018.13
2023-03-16T11:29:39.703Z,101028.09
2023-03-16T11:32:15.372Z,101017.56
2023-03-16T11:34:45.549Z,101020.41
2023-03-16T11:37:26.349Z,101021.88
2023-03-16T11:40:09.458Z,101019.22
2023-03-16T11:42:41.520Z,101016.91
2023-03-16T11:45:20.361Z,101017.88
2023-03-16T11:48:22.759Z,101019.72
2023-03-16T11:51:02.842Z,101021.69
2023-03-16T11:53:46.020Z,101028.16
2023-03-16T11:56:21.954Z,101022.56
2023-03-16T11:59:15.973Z,101028.63
2023-03-16T12:02:01.202Z,101028.56
2023-03-16T12:05:00.237Z,101036.25
2023-03-16T12:07:45.751Z,101042.59
2023-03-16T12:10:27.231Z,101031.91
2023-03-16T12:13:06.917Z,101038.06
2023-03-16T12:15:40.416Z,101043.03
2023-03-16T12:18:17.324Z,101040.38
2023-03-16T12:20:50.902Z,101041.78
2023-03-16T12:23:24.732Z,101041.81
2023-03-16T12:25:55.046Z,101037.88
2023-03-16T12:28:26.091Z,101041.78
2023-03-16T12:31:09.906Z,101041.38
2023-03-16T12:34:03.971Z,101037.53
2023-03-16T12:36:58.971Z,101041.09
2023-03-16T12:39:41.853Z,101037.69
2023-03-16T12:42:24.736Z,101034.69
2023-03-16T12:44:58.047Z,101037.69
2023-03-16T12:47:35.028Z,101040.19
2023-03-16T12:50:08.844Z,101041.81
2023-03-16T12:52:49.514Z,101043.25
2023-03-16T12:55:20.048Z,101031.00
2023-03-16T12:57:51.594Z,101047.47
2023-03-16T13:00:21.656Z,101044.28
2023-03-16T13:02:55.676Z,101037.16
2023-03-16T13:05:31.598Z,101041.56
2023-03-16T13:08:10.732Z,101038.56
2023-03-16T13:10:40.554Z,101034.06
2023-03-16T13:13:11.480Z,101033.59
2023-03-16T13:15:40.351Z,101039.63
2023-03-16T13:18:23.936Z,101037.50
2023-03-16T13:20:57.130Z,101030.38
2023-03-16T13:23:52.260Z,101027.22
2023-03-16T13:26:28.219Z,101026.41
2023-03-16T13:28:56.787Z,101037.69
2023-03-16T13:31:28.769Z,101033.38
2023-03-16T13:34:00.456Z,101026.56
2023-03-16T13:36:30.309Z,101034.00
2023-03-16T13:39:06.769Z,101035.53
2023-03-16T13:41:35.908Z,101028.75
2023-03-16T13:44:06.577Z,101033.25
2023-03-16T13:46:35.830Z,101029.28
2023-03-16T13:49:04.099Z,101027.63
2023-03-16T13:51:37.788Z,101031.94
2023-03-16T13:54:22.125Z,101027.94
2023-03-16T13:56:51.616Z,101036.41
2023-03-16T13:59:21.597Z,101032.25
2023-03-16T14:01:50.104Z,101034.69
2023-03-16T14:04:24.023Z,101032.19
2023-03-16T14:06:57.119Z,101036.69
2023-03-16T14:09:31.086Z,101034.69
2023-03-16T14:12:00.178Z,101042.50
2023-03-16T14:14:32.026Z,101040.66
2023-03-16T14:17:05.705Z,101035.88
2023-03-16T14:19:42.568Z,101038.38
2023-03-16T14:22:19.516Z,101041.22
2023-03-16T14:24:56.885Z,101040.75
2023-03-16T14:27:32.892Z,101053.72
2023-03-16T14:30:02.930Z,101051.75
2023-03-16T14:32:33.550Z,101048.09
2023-03-16T14:35:14.803Z,101048.94
2023-03-16T14:37:43.674Z,101049.09
2023-03-16T14:40:31.979Z,101042.09
2023-03-16T14:43:03.740Z,101040.59
2023-03-16T14:45:44.224Z,101035.78
2023-03-16T14:48:23.787Z,101036.94
2023-03-16T14:50:55.870Z,101038.97
2023-03-16T14:53:24.678Z,101030.16
2023-03-16T14:55:54.731Z,101028.16
2023-03-16T14:58:23.390Z,101033.16
2023-03-16T15:00:53.787Z,101037.97
2023-03-16T15:03:27.105Z,101037.00
2023-03-16T15:05:55.959Z,101039.50
2023-03-16T15:08:27.325Z,101031.66
2023-03-16T15:11:01.346Z,101025.16
2023-03-16T15:13:52.879Z,101021.34
2023-03-16T15:16:23.164Z,101028.50
2023-03-16T15:18:52.055Z,101028.81
2023-03-16T15:21:24.323Z,101029.13
2023-03-16T15:23:52.632Z,101025.78
2023-03-16T15:26:30.791Z,101023.78
2023-03-16T15:28:59.519Z,101029.75
2023-03-16T15:31:27.775Z,101030.38
2023-03-16T15:33:56.539Z,101033.00
2023-03-16T15:36:25.071Z,101029.00
2023-03-16T15:38:55.586Z,101032.31
2023-03-16T15:41:32.375Z,101030.28
2023-03-16T15:44:14.205Z,101028.44
2023-03-16T15:46:42.451Z,101030.78
2023-03-16T15:49:10.614Z,101028.13
2023-03-16T15:51:38.936Z,101031.59
2023-03-16T15:54:13.131Z,101035.41
2023-03-16T15:56:53.713Z,101032.91
2023-03-16T15:59:23.644Z,101030.03
2023-03-16T16:01:52.902Z,101037.34
2023-03-16T16:04:24.559Z,101030.00
2023-03-16T16:06:55.468Z,101032.63
2023-03-16T16:09:25.669Z,101044.41
2023-03-16T16:11:55.912Z,101033.53
2023-03-16T16:14:28.242Z,101044.47
2023-03-16T16:16:56.933Z,101045.13
2023-03-16T16:19:25.558Z,101043.38
2023-03-16T16:21:54.192Z,101034.19
2023-03-16T16:24:22.669Z,101040.94
2023-03-16T16:26:54.663Z,101049.69
2023-03-16T16:29:27.361Z,101052.78
2023-03-16T16:31:55.892Z,101044.94
2023-03-16T16:34:25.968Z,101041.38
2023-03-16T16:36:54.527Z,101056.06
2023-03-16T16:39:23.195Z,101046.75
2023-03-16T16:41:54.733Z,101054.50
2023-03-16T16:44:27.522Z,101054.25
2023-03-16T16:46:56.850Z,101050.69
2023-03-16T16:49:28.045Z,101060.91
2023-03-16T16:51:56.779Z,101044.78
2023-03-16T16:54:27.301Z,101047.34
2023-03-16T16:56:57.335Z,101045.41
2023-03-16T16:59:30.266Z,101037.00
2023-03-16T17:01:59.628Z,101048.72
2023-03-16T17:04:29.983Z,101049.47
2023-03-16T17:07:01.888Z,101051.84
2023-03-16T17:09:32.062Z,101054.41
2023-03-16T17:12:01.571Z,101048.88
2023-03-16T17:14:55.066Z,101054.03
2023-03-16T17:17:23.786Z,101055.63
2023-03-16T17:19:51.988Z,101047.53
2023-03-16T17:22:25.019Z,101054.41
2023-03-16T17:24:53.389Z,101052.47
2023-03-16T17:27:27.043Z,101056.66
2023-03-16T17:29:59.352Z,101054.72
2023-03-16T17:32:27.825Z,101051.25
2023-03-16T17:34:56.029Z,101055.47
2023-03-16T17:37:24.713Z,101058.09
2023-03-16T17:39:56.216Z,101052.81
2023-03-16T17:42:26.541Z,101056.19
2023-03-16T17:44:56.736Z,101053.94
2023-03-16T17:47:26.602Z,101057.44
2023-03-16T17:49:57.047Z,101050.88
2023-03-16T17:52:27.182Z,101054.09
2023-03-16T17:54:55.968Z,101058.09
2023-03-16T17:57:27.808Z,101057.13
2023-03-16T17:59:57.541Z,101057.66
2023-03-16T18:02:45.446Z,101066.44
2023-03-16T18:05:20.187Z,101068.66
2023-03-16T18:07:49.104Z,101070.47
2023-03-16T18:10:21.523Z,101071.44
2023-03-16T18:12:55.756Z,101072.53
2023-03-16T18:15:30.404Z,101066.41
2023-03-16T18:17:59.884Z,101068.22
2023-03-16T18:20:33.953Z,101065.72
2023-03-16T18:23:03.404Z,101065.72
2023-03-16T18:25:39.077Z,101075.31
2023-03-16T18:28:08.966Z,101071.00
2023-03-16T18:30:40.259Z,101081.00
2023-03-16T18:33:14.480Z,101079.88
2023-03-16T18:35:42.986Z,101076.91
2023-03-16T18:38:20.510Z,101082.75
2023-03-16T18:40:49.492Z,101077.03
2023-03-16T18:43:18.327Z,101074.09
2023-03-16T18:45:49.098Z,101072.69
2023-03-16T18:48:24.867Z,101073.91
2023-03-16T18:50:53.108Z,101079.47
2023-03-16T18:53:22.440Z,101089.19
2023-03-16T18:55:50.947Z,101073.63
2023-03-16T18:58:22.749Z,101086.94
2023-03-16T19:00:56.579Z,101094.16
2023-03-16T19:03:27.746Z,101086.34
2023-03-16T19:06:05.861Z,101091.63
2023-03-16T19:08:34.450Z,101082.03
2023-03-16T19:11:04.426Z,101087.91
2023-03-16T19:13:32.715Z,101086.22
2023-03-16T19:16:03.604Z,101085.97
2023-03-16T19:18:31.751Z,101092.09
2023-03-16T19:21:00.025Z,101076.50
2023-03-16T19:23:31.739Z,101079.84
2023-03-16T19:26:00.148Z,101082.63
2023-03-16T19:28:33.849Z,101084.44
2023-03-16T19:31:08.490Z,101080.13
2023-03-16T19:33:46.810Z,101081.22
2023-03-16T19:36:20.928Z,101074.38
2023-03-16T19:38:50.525Z,101069.25
2023-03-16T19:41:28.070Z,101075.38
2023-03-16T19:43:58.280Z,101072.56
2023-03-16T19:46:29.039Z,101078.00
2023-03-16T19:49:13.237Z,101080.66
2023-03-16T19:51:41.367Z,101076.22
2023-03-16T19:54:21.257Z,101076.06
2023-03-16T19:56:49.487Z,101067.16
2023-03-16T19:59:18.223Z,101075.78
2023-03-16T20:01:48.490Z,101062.47
2023-03-16T20:04:19.577Z,101063.56
2023-03-16T20:06:49.847Z,101058.88
2023-03-16T20:09:18.306Z,101058.59
2023-03-16T20:11:49.874Z,101062.09
2023-03-16T20:14:22.038Z,101061.97
2023-03-16T20:16:53.239Z,101067.22
2023-03-16T20:19:22.458Z,101064.59
2023-03-16T20:21:51.019Z,101063.88
2023-03-16T20:24:20.836Z,101063.88
2023-03-16T20:26:51.498Z,101057.50
2023-03-16T20:29:25.811Z,101065.56
2023-03-16T20:32:01.888Z,101061.13
2023-03-16T20:34:32.298Z,101066.41
2023-03-16T20:37:01.515Z,101055.00
2023-03-16T20:39:30.352Z,101068.06
2023-03-16T20:41:59.351Z,101057.78
2023-03-16T20:44:30.224Z,101064.84
2023-03-16T20:47:07.401Z,101063.06
2023-03-16T20:49:35.670Z,101059.56
2023-03-16T20:52:04.029Z,101053.59
2023-03-16T20:54:32.210Z,101066.78
2023-03-16T20:57:01.303Z,101064.16
2023-03-16T20:59:30.645Z,101076.50
2023-03-16T21:02:01.762Z,101059.00
2023-03-16T21:04:30.238Z,101067.75
2023-03-16T21:06:58.601Z,101069.44
2023-03-16T21:09:27.793Z,101059.97
2023-03-16T21:11:58.043Z,101060.94
2023-03-16T21:14:26.442Z,101057.31
2023-03-16T21:16:55.681Z,101057.31
2023-03-16T21:19:25.320Z,101060.66
2023-03-16T21:21:53.745Z,101069.16
2023-03-16T21:24:22.620Z,101053.19
2023-03-16T21:26:50.815Z,101053.88
2023-03-16T21:29:22.036Z,101057.34
2023-03-16T21:31:50.520Z,101053.19
2023-03-16T21:34:37.448Z,101063.47
2023-03-16T21:37:13.911Z,101065.69
2023-03-16T21:39:42.091Z,101061.38
2023-03-16T21:42:10.592Z,101062.22
2023-03-16T21:44:39.102Z,101057.31
2023-03-16T21:47:22.595Z,101050.38
2023-03-16T21:49:53.922Z,101059.97
2023-03-16T21:52:24.814Z,101052.75
2023-03-16T21:54:53.829Z,101053.59
2023-03-16T21:57:23.117Z,101055.50
2023-03-16T21:59:52.015Z,101055.50
2023-03-16T22:02:23.206Z,101053.97
2023-03-16T22:04:54.669Z,101040.06
2023-03-16T22:07:38.614Z,101050.78
2023-03-16T22:10:16.757Z,101051.03
2023-03-16T22:12:47.083Z,101043.25
2023-03-16T22:15:15.474Z,101048.66
2023-03-16T22:17:44.852Z,101059.09
2023-03-16T22:20:20.681Z,101036.28
2023-03-16T22:22:49.773Z,101050.34
2023-03-16T22:25:20.808Z,101047.81
2023-03-16T22:27:49.675Z,101037.66
2023-03-16T22:30:21.631Z,101039.44
2023-03-16T22:32:53.196Z,101028.22
2023-03-16T22:35:31.058Z,101022.34
2023-03-16T22:38:02.009Z,101024.28
2023-03-16T22:40:32.966Z,101021.91
2023-03-16T22:43:04.873Z,101023.56
2023-03-16T22:45:34.618Z,101022.63
2023-03-16T22:48:09.167Z,101017.59
2023-03-16T22:50:38.766Z,101014.81
2023-03-16T22:53:09.959Z,101005.09
2023-03-16T22:55:40.816Z,101005.94
2023-03-16T22:58:14.717Z,101019.00
2023-03-16T23:00:43.340Z,101014.69
2023-03-16T23:03:18.705Z,101017.22
2023-03-16T23:05:48.311Z,101020.81
2023-03-16T23:08:39.312Z,101020.81
2023-03-16T23:11:12.198Z,101011.22
2023-03-16T23:13:41.402Z,100995.50
2023-03-16T23:16:21.610Z,101001.63
2023-03-16T23:18:49.991Z,101000.66
2023-03-16T23:21:24.716Z,100995.38
2023-03-16T23:24:03.435Z,100990.81
2023-03-16T23:26:33.113Z,100988.19
2023-03-16T23:29:01.350Z,100999.56
2023-03-16T23:31:31.125Z,100991.66
2023-03-16T23:33:59.528Z,100989.84
2023-03-16T23:36:30.132Z,101009.03
2023-03-16T23:38:58.366Z,101002.66
2023-03-16T23:41:26.934Z,101003.03
2023-03-16T23:43:55.989Z,101012.75
2023-03-16T23:46:26.133Z,101004.84
2023-03-16T23:48:57.643Z,100994.28
2023-03-16T23:51:30.223Z,100995.13
2023-03-16T23:54:00.664Z,100997.78
2023-03-16T23:56:29.019Z,100990.13
2023-03-16T23:58:57.912Z,100987.34
